createdAt,value
2019-02-19T00:02:24.453Z,96898.64
2019-02-19T00:04:50.496Z,96898.32
2019-02-19T00:07:16.346Z,96899.41
2019-02-19T00:09:42.167Z,96896.52
2019-02-19T00:12:08.067Z,96896.56
2019-02-19T00:14:36.648Z,96897.45
2019-02-19T00:17:02.565Z,96893.66
2019-02-19T00:19:28.680Z,96896.70
2019-02-19T00:21:54.848Z,96895.41
2019-02-19T00:24:20.800Z,96896.23
2019-02-19T00:26:46.638Z,96895.20
2019-02-19T00:29:12.667Z,96888.85
2019-02-19T00:31:38.526Z,96879.47
2019-02-19T00:34:04.370Z,96876.17
2019-02-19T00:36:30.329Z,96880.34
2019-02-19T00:38:56.317Z,96877.47
2019-02-19T00:41:22.357Z,96873.52
2019-02-19T00:43:48.267Z,96875.98
2019-02-19T00:46:14.391Z,96874.03
2019-02-19T00:48:40.296Z,96877.00
2019-02-19T00:51:06.378Z,96880.12
2019-02-19T00:53:32.369Z,96884.06
2019-02-19T00:56:39.907Z,96886.36
2019-02-19T00:59:05.854Z,96885.34
2019-02-19T01:01:31.714Z,96889.77
2019-02-19T01:03:57.613Z,96901.73
2019-02-19T01:06:23.430Z,96908.72
2019-02-19T01:08:49.370Z,96907.87
2019-02-19T01:11:15.492Z,96907.08
2019-02-19T01:13:41.418Z,96899.16
2019-02-19T01:16:07.241Z,96887.19
2019-02-19T01:18:33.169Z,96886.20
2019-02-19T01:20:59.015Z,96886.52
2019-02-19T01:23:24.849Z,96885.62
2019-02-19T01:25:50.788Z,96893.85
2019-02-19T01:28:16.619Z,96884.55
2019-02-19T01:30:42.801Z,96883.34
2019-02-19T01:33:08.640Z,96885.70
2019-02-19T01:35:34.613Z,96882.91
2019-02-19T01:38:00.418Z,96881.13
2019-02-19T01:40:26.368Z,96876.55
2019-02-19T01:42:52.213Z,96878.42
2019-02-19T01:45:18.134Z,96881.53
2019-02-19T01:47:43.979Z,96880.39
2019-02-19T01:50:09.931Z,96888.19
2019-02-19T01:52:35.750Z,96883.70
2019-02-19T01:55:43.214Z,96875.51
2019-02-19T01:58:09.191Z,96874.00
2019-02-19T02:00:35.033Z,96880.94
2019-02-19T02:03:01.045Z,96878.78
2019-02-19T02:05:26.988Z,96878.73
2019-02-19T02:07:52.827Z,96874.97
2019-02-19T02:10:18.668Z,96863.16
2019-02-19T02:12:44.582Z,96880.05
2019-02-19T02:15:10.528Z,96879.16
2019-02-19T02:17:36.356Z,96880.92
2019-02-19T02:20:43.852Z,96880.69
2019-02-19T02:23:09.791Z,96875.55
2019-02-19T02:25:35.630Z,96878.40
2019-02-19T02:28:01.461Z,96879.44
2019-02-19T02:30:27.422Z,96877.33
2019-02-19T02:32:53.234Z,96866.93
2019-02-19T02:35:19.102Z,96864.88
2019-02-19T02:37:44.933Z,96870.56
2019-02-19T02:40:10.857Z,96872.55
2019-02-19T02:42:36.705Z,96870.98
2019-02-19T02:45:52.798Z,96865.45
2019-02-19T02:48:12.032Z,96866.93
2019-02-19T02:50:37.966Z,96857.77
2019-02-19T02:53:03.791Z,96862.27
2019-02-19T02:55:29.710Z,96860.14
2019-02-19T02:57:55.553Z,96867.08
2019-02-19T03:00:21.480Z,96866.64
2019-02-19T03:02:47.315Z,96866.73
2019-02-19T03:05:13.217Z,96870.52
2019-02-19T03:07:58.949Z,96863.38
2019-02-19T03:10:24.774Z,96870.73
2019-02-19T03:12:50.626Z,96860.52
2019-02-19T03:15:16.568Z,96858.33
2019-02-19T03:17:42.382Z,96860.69
2019-02-19T03:20:08.220Z,96859.08
2019-02-19T03:22:34.162Z,96847.95
2019-02-19T03:24:59.986Z,96854.38
2019-02-19T03:27:25.807Z,96854.41
2019-02-19T03:29:51.651Z,96853.98
2019-02-19T03:32:17.485Z,96858.36
2019-02-19T03:34:43.355Z,96852.68
2019-02-19T03:37:09.182Z,96849.61
2019-02-19T03:39:35.032Z,96852.45
2019-02-19T03:42:01.181Z,96852.59
2019-02-19T03:44:27.020Z,96855.96
2019-02-19T03:46:52.960Z,96856.98
2019-02-19T03:49:18.796Z,96866.72
2019-02-19T03:51:44.637Z,96867.70
2019-02-19T03:54:10.471Z,96869.94
2019-02-19T03:56:36.402Z,96874.45
2019-02-19T03:59:02.361Z,96878.17
2019-02-19T04:01:28.185Z,96875.06
2019-02-19T04:03:54.023Z,96871.27
2019-02-19T04:06:19.842Z,96872.05
2019-02-19T04:08:45.707Z,96875.30
2019-02-19T04:11:11.511Z,96895.70
2019-02-19T04:13:37.343Z,96874.63
2019-02-19T04:16:03.297Z,96876.53
2019-02-19T04:18:29.209Z,96881.53
2019-02-19T04:20:55.063Z,96874.91
2019-02-19T04:23:20.982Z,96883.96
2019-02-19T04:25:46.843Z,96877.44
2019-02-19T04:28:12.684Z,96880.17
2019-02-19T04:30:38.548Z,96880.25
2019-02-19T04:33:04.354Z,96878.51
2019-02-19T04:35:30.311Z,96880.14
2019-02-19T04:37:56.165Z,96877.77
2019-02-19T04:40:22.086Z,96878.89
2019-02-19T04:42:47.938Z,96880.39
2019-02-19T04:45:13.883Z,96884.67
2019-02-19T04:47:39.723Z,96881.36
2019-02-19T04:50:47.216Z,96878.48
2019-02-19T04:53:13.078Z,96883.84
2019-02-19T04:55:38.911Z,96876.15
2019-02-19T04:58:04.793Z,96880.64
2019-02-19T05:00:30.631Z,96871.86
2019-02-19T05:02:56.468Z,96878.52
2019-02-19T05:05:22.301Z,96881.38
2019-02-19T05:07:48.134Z,96882.98
2019-02-19T05:10:13.965Z,96883.42
2019-02-19T05:12:39.797Z,96890.10
2019-02-19T05:15:47.319Z,96882.41
2019-02-19T05:18:13.262Z,96889.23
2019-02-19T05:20:39.109Z,96885.14
2019-02-19T05:23:07.034Z,96885.11
2019-02-19T05:25:32.882Z,96885.66
2019-02-19T05:27:58.719Z,96890.60
2019-02-19T05:30:24.964Z,96888.41
2019-02-19T05:32:50.799Z,96892.66
2019-02-19T05:35:16.628Z,96889.56
2019-02-19T05:37:42.477Z,96893.25
2019-02-19T05:40:49.973Z,96897.34
2019-02-19T05:43:15.841Z,96894.59
2019-02-19T05:45:41.677Z,96903.91
2019-02-19T05:48:07.518Z,96896.83
2019-02-19T05:50:33.357Z,96900.66
2019-02-19T05:52:59.201Z,96892.39
2019-02-19T05:55:25.105Z,96897.61
2019-02-19T05:57:50.967Z,96896.97
2019-02-19T06:00:16.803Z,96886.94
2019-02-19T06:02:43.023Z,96886.94
2019-02-19T06:05:08.948Z,96898.45
2019-02-19T06:10:48.739Z,96907.20
2019-02-19T06:13:14.599Z,96908.36
2019-02-19T06:15:40.649Z,96910.78
2019-02-19T06:18:06.478Z,96916.56
2019-02-19T06:20:32.289Z,96917.65
2019-02-19T06:22:58.109Z,96842.18
2019-02-19T06:25:23.956Z,96932.57
2019-02-19T06:27:49.764Z,96925.30
2019-02-19T06:30:15.621Z,96926.49
2019-02-19T06:32:41.445Z,96932.16
2019-02-19T06:35:48.950Z,96931.90
2019-02-19T06:38:14.776Z,96938.53
2019-02-19T06:40:40.623Z,96937.60
2019-02-19T06:43:06.498Z,96945.88
2019-02-19T06:45:32.342Z,96951.36
2019-02-19T06:47:58.166Z,96935.13
2019-02-19T06:50:24.139Z,96949.20
2019-02-19T06:52:49.958Z,96960.06
2019-02-19T06:55:15.811Z,96959.51
2019-02-19T06:57:41.676Z,96962.42
2019-02-19T07:00:49.146Z,96958.42
2019-02-19T07:05:48.741Z,96964.20
2019-02-19T07:08:14.580Z,96971.59
2019-02-19T07:10:40.513Z,96967.94
2019-02-19T07:13:06.350Z,96963.98
2019-02-19T07:15:32.282Z,96968.95
2019-02-19T07:17:58.140Z,96965.80
2019-02-19T07:20:24.052Z,96969.70
2019-02-19T07:25:43.424Z,96974.09
2019-02-19T07:28:09.241Z,96977.19
2019-02-19T07:30:35.065Z,96979.60
2019-02-19T07:33:00.883Z,96972.30
2019-02-19T07:35:26.733Z,96972.22
2019-02-19T07:37:52.538Z,96976.83
2019-02-19T07:40:18.472Z,96972.63
2019-02-19T07:42:44.291Z,96977.66
2019-02-19T07:45:52.338Z,96979.38
2019-02-19T07:48:18.195Z,96984.08
2019-02-19T07:50:44.130Z,96978.61
2019-02-19T07:53:10.049Z,96982.42
2019-02-19T07:55:36.016Z,96988.18
2019-02-19T07:58:01.833Z,96987.12
2019-02-19T08:00:27.755Z,96984.94
2019-02-19T08:02:53.574Z,96981.56
2019-02-19T08:05:19.388Z,96990.55
2019-02-19T08:07:45.238Z,96984.56
2019-02-19T08:10:52.695Z,96990.41
2019-02-19T08:13:18.522Z,96990.93
2019-02-19T08:15:44.340Z,96998.75
2019-02-19T08:21:04.596Z,96999.50
2019-02-19T08:23:30.430Z,96994.78
2019-02-19T08:25:56.273Z,96996.98
2019-02-19T08:28:22.110Z,96995.26
2019-02-19T08:30:47.933Z,96994.73
2019-02-19T08:33:13.778Z,97006.89
2019-02-19T08:35:39.631Z,97013.20
2019-02-19T08:38:05.455Z,97017.91
2019-02-19T08:40:31.385Z,97021.27
2019-02-19T08:42:57.226Z,97012.70
2019-02-19T08:45:23.064Z,97015.87
2019-02-19T08:47:49.145Z,97021.77
2019-02-19T08:50:14.977Z,97020.06
2019-02-19T08:52:40.785Z,97009.23
2019-02-19T08:55:06.727Z,97010.89
2019-02-19T08:57:32.656Z,97006.47
2019-02-19T09:02:30.482Z,97011.35
2019-02-19T09:04:56.394Z,97006.94
2019-02-19T09:07:22.227Z,97002.55
2019-02-19T09:09:48.031Z,97007.56
2019-02-19T09:12:13.865Z,97007.34
2019-02-19T09:14:39.795Z,97011.83
2019-02-19T09:17:05.718Z,97003.53
2019-02-19T09:19:31.558Z,96999.63
2019-02-19T09:21:57.606Z,96998.58
2019-02-19T09:24:23.431Z,97009.04
2019-02-19T09:26:49.754Z,97009.06
2019-02-19T09:29:15.670Z,97002.52
2019-02-19T09:31:41.590Z,97006.70
2019-02-19T09:34:07.560Z,97010.37
2019-02-19T09:36:33.516Z,97011.13
2019-02-19T09:38:59.338Z,97013.16
2019-02-19T09:41:25.303Z,97012.66
2019-02-19T09:43:51.292Z,97006.37
2019-02-19T09:46:17.221Z,97003.20
2019-02-19T09:48:43.114Z,97007.09
2019-02-19T09:51:09.076Z,97013.07
2019-02-19T09:53:34.989Z,97010.47
2019-02-19T09:56:00.836Z,97014.86
2019-02-19T09:58:26.759Z,97018.17
2019-02-19T10:00:52.878Z,97017.61
2019-02-19T10:03:18.902Z,97022.33
2019-02-19T10:05:44.734Z,97024.34
2019-02-19T10:08:10.661Z,97023.70
2019-02-19T10:10:36.509Z,97024.22
2019-02-19T10:13:02.335Z,97016.42
2019-02-19T10:15:28.170Z,97017.66
2019-02-19T10:17:54.106Z,97013.52
2019-02-19T10:20:19.965Z,97011.66
2019-02-19T10:22:45.897Z,97006.38
2019-02-19T10:25:53.393Z,97002.64
2019-02-19T10:28:19.228Z,97007.28
2019-02-19T10:30:45.058Z,97010.75
2019-02-19T10:33:10.898Z,97018.20
2019-02-19T10:35:36.757Z,97018.61
2019-02-19T10:38:02.590Z,97020.09
2019-02-19T10:40:28.516Z,97023.13
2019-02-19T10:42:54.457Z,97023.34
2019-02-19T10:46:01.936Z,97026.02
2019-02-19T10:48:27.785Z,97024.84
2019-02-19T10:50:53.701Z,97022.23
2019-02-19T10:53:19.659Z,97013.81
2019-02-19T10:55:45.460Z,97013.77
2019-02-19T10:58:11.620Z,97009.52
2019-02-19T11:00:39.146Z,97002.89
2019-02-19T11:03:04.980Z,97001.92
2019-02-19T11:05:30.798Z,97006.77
2019-02-19T11:07:56.733Z,97001.55
2019-02-19T11:10:22.657Z,96999.36
2019-02-19T11:12:48.637Z,96999.12
2019-02-19T11:15:14.542Z,96990.84
2019-02-19T11:17:40.558Z,97004.05
2019-02-19T11:20:26.282Z,96997.83
2019-02-19T11:22:52.120Z,96997.83
2019-02-19T11:25:17.939Z,96993.81
2019-02-19T11:27:43.752Z,96995.70
2019-02-19T11:30:29.485Z,96990.91
2019-02-19T11:32:55.426Z,96987.73
2019-02-19T11:35:21.241Z,96972.45
2019-02-19T11:37:47.078Z,96981.14
2019-02-19T11:40:54.583Z,96986.64
2019-02-19T11:43:40.277Z,96982.53
2019-02-19T11:46:26.021Z,96983.09
2019-02-19T11:49:11.873Z,96984.38
2019-02-19T11:51:37.698Z,96984.38
2019-02-19T11:54:03.652Z,96982.73
2019-02-19T11:56:29.459Z,96970.96
2019-02-19T11:58:55.307Z,96975.75
2019-02-19T12:01:21.232Z,96976.05
2019-02-19T12:03:47.133Z,96964.80
2019-02-19T12:06:12.992Z,96974.69
2019-02-19T12:08:39.468Z,96977.90
2019-02-19T12:11:06.975Z,96978.92
2019-02-19T12:13:32.895Z,96978.92
2019-02-19T12:15:58.841Z,96978.14
2019-02-19T12:18:24.750Z,96965.27
2019-02-19T12:20:50.587Z,96971.11
2019-02-19T12:23:16.399Z,96919.64
2019-02-19T12:25:42.332Z,96964.80
2019-02-19T12:28:08.263Z,96957.12
2019-02-19T12:30:34.114Z,96955.63
2019-02-19T12:32:59.934Z,96963.69
2019-02-19T12:35:25.779Z,96964.94
2019-02-19T12:37:51.603Z,96962.31
2019-02-19T12:40:17.554Z,96956.86
2019-02-19T12:42:43.354Z,96963.62
2019-02-19T12:45:50.842Z,96960.27
2019-02-19T12:48:36.540Z,96952.37
2019-02-19T12:51:02.486Z,96962.40
2019-02-19T12:53:28.423Z,96962.40
2019-02-19T12:55:54.283Z,96965.99
2019-02-19T12:58:20.161Z,96954.44
2019-02-19T13:00:46.133Z,96957.76
2019-02-19T13:03:12.085Z,96953.66
2019-02-19T13:05:38.036Z,96946.79
2019-02-19T13:08:03.983Z,96942.36
2019-02-19T13:10:29.946Z,96952.84
2019-02-19T13:12:55.916Z,96947.13
2019-02-19T13:15:21.981Z,96953.76
2019-02-19T13:18:07.793Z,96944.54
2019-02-19T13:20:33.670Z,96944.54
2019-02-19T13:23:01.767Z,96939.48
2019-02-19T13:25:27.733Z,96920.51
2019-02-19T13:27:53.567Z,96933.92
2019-02-19T13:30:39.291Z,96943.44
2019-02-19T13:33:05.152Z,96953.27
2019-02-19T13:35:31.126Z,96964.52
2019-02-19T13:37:57.027Z,96967.39
2019-02-19T13:40:22.857Z,96964.89
2019-02-19T13:42:48.662Z,96967.04
2019-02-19T13:45:14.595Z,96959.81
2019-02-19T13:47:40.408Z,96956.41
2019-02-19T13:50:47.923Z,96948.08
2019-02-19T13:53:33.654Z,96950.17
2019-02-19T13:58:46.872Z,96967.66
2019-02-19T14:01:12.714Z,96961.47
2019-02-19T14:03:38.720Z,96954.41
2019-02-19T14:06:24.455Z,96963.43
2019-02-19T14:09:10.154Z,96963.43
2019-02-19T14:11:36.022Z,96969.30
2019-02-19T14:14:21.762Z,96970.84
2019-02-19T14:19:54.954Z,96972.81
2019-02-19T14:23:00.535Z,96971.42
2019-02-19T14:25:46.372Z,96971.42
2019-02-19T14:28:32.091Z,96984.48
2019-02-19T14:31:26.600Z,96983.42
2019-02-19T14:34:12.315Z,96983.55
2019-02-19T14:36:58.045Z,96979.72
2019-02-19T14:39:43.762Z,96983.56
2019-02-19T14:45:07.093Z,96984.02
2019-02-19T14:47:53.000Z,96992.59
2019-02-19T14:50:39.038Z,96984.79
2019-02-19T14:53:24.874Z,96987.04
2019-02-19T14:56:30.484Z,96977.88
2019-02-19T14:59:16.201Z,96977.88
2019-02-19T15:02:01.933Z,96981.16
2019-02-19T15:04:47.672Z,96986.20
2019-02-19T15:07:33.391Z,96988.97
2019-02-19T15:10:19.136Z,96984.72
2019-02-19T15:13:24.753Z,96985.61
2019-02-19T15:19:19.885Z,96984.80
2019-02-19T15:22:25.352Z,96987.42
2019-02-19T15:28:18.335Z,96994.56
2019-02-19T15:31:04.076Z,96994.56
2019-02-19T15:36:27.182Z,97003.22
2019-02-19T15:44:24.050Z,97002.00
2019-02-19T15:47:09.761Z,97001.38
2019-02-19T15:49:55.625Z,96994.33
2019-02-19T15:52:41.332Z,97000.19
2019-02-19T15:55:27.074Z,96995.39
2019-02-19T15:58:32.705Z,97003.02
2019-02-19T16:01:18.441Z,97003.02
2019-02-19T16:04:04.178Z,96995.74
2019-02-19T16:07:09.762Z,97004.00
2019-02-19T16:09:55.491Z,97004.00
2019-02-19T16:12:41.203Z,97001.91
2019-02-19T16:15:48.706Z,96998.59
2019-02-19T16:18:34.423Z,96999.73
2019-02-19T16:21:20.174Z,97004.95
2019-02-19T16:29:16.476Z,97006.37
2019-02-19T16:32:03.409Z,96994.80
2019-02-19T16:34:49.196Z,96994.80
2019-02-19T16:40:44.031Z,97002.12
2019-02-19T16:46:37.021Z,97010.35
2019-02-19T16:49:42.640Z,97014.38
2019-02-19T16:55:15.737Z,97017.88
2019-02-19T17:00:50.794Z,97022.74
2019-02-19T17:12:47.560Z,97039.09
2019-02-19T17:15:53.966Z,97043.13
2019-02-19T17:18:39.789Z,97043.13
2019-02-19T17:21:25.529Z,97041.92
2019-02-19T17:26:58.592Z,97055.41
2019-02-19T17:29:44.303Z,97056.16
2019-02-19T17:32:30.075Z,97055.97
2019-02-19T17:38:03.227Z,97061.69
2019-02-19T17:40:48.926Z,97068.28
2019-02-19T17:43:34.724Z,97067.06
2019-02-19T17:49:07.911Z,97076.31
2019-02-19T17:51:53.616Z,97072.64
2019-02-19T17:57:13.489Z,97086.43
2019-02-19T17:59:59.359Z,97086.43
2019-02-19T18:02:45.170Z,97086.09
2019-02-19T18:05:30.945Z,97084.28
2019-02-19T18:08:16.788Z,97080.92
2019-02-19T18:11:02.552Z,97086.67
2019-02-19T18:16:35.955Z,97097.82
2019-02-19T18:19:01.932Z,97095.48
2019-02-19T18:21:27.833Z,97103.83
2019-02-19T18:23:53.705Z,97094.03
2019-02-19T18:26:19.658Z,97101.27
2019-02-19T18:28:45.552Z,97100.48
2019-02-19T18:31:11.683Z,97100.97
2019-02-19T18:33:37.680Z,97101.80
2019-02-19T18:36:03.629Z,97092.88
2019-02-19T18:38:29.479Z,97099.72
2019-02-19T18:40:55.434Z,97108.61
2019-02-19T18:43:21.288Z,97099.51
2019-02-19T18:45:47.209Z,97106.05
2019-02-19T18:48:13.054Z,97103.80
2019-02-19T18:50:39.015Z,97102.76
2019-02-19T18:53:04.899Z,97105.06
2019-02-19T18:55:31.248Z,97101.16
2019-02-19T18:57:57.144Z,97094.84
2019-02-19T19:00:23.008Z,97096.45
2019-02-19T19:02:48.992Z,97099.38
2019-02-19T19:05:14.842Z,97100.69
2019-02-19T19:07:40.812Z,97107.49
2019-02-19T19:10:48.343Z,97107.02
2019-02-19T19:13:14.296Z,97110.42
2019-02-19T19:15:40.148Z,97119.06
2019-02-19T19:18:06.079Z,97113.80
2019-02-19T19:20:32.082Z,97116.20
2019-02-19T19:22:58.077Z,97119.86
2019-02-19T19:28:11.365Z,97122.75
2019-02-19T19:30:37.192Z,97120.39
2019-02-19T19:33:03.096Z,97113.31
2019-02-19T19:38:22.817Z,97112.29
2019-02-19T19:40:48.758Z,97116.21
2019-02-19T19:43:14.570Z,97119.33
2019-02-19T19:45:40.515Z,97112.77
2019-02-19T19:48:06.388Z,97112.75
2019-02-19T19:50:32.337Z,97115.62
2019-02-19T19:52:58.281Z,97117.45
2019-02-19T19:55:24.142Z,97117.67
2019-02-19T19:57:50.005Z,97122.11
2019-02-19T20:00:15.995Z,97126.52
2019-02-19T20:02:41.901Z,97125.55
2019-02-19T20:05:49.523Z,97122.59
2019-02-19T20:08:16.016Z,97124.68
2019-02-19T20:10:42.064Z,97136.38
2019-02-19T20:13:07.951Z,97136.12
2019-02-19T20:15:33.851Z,97138.13
2019-02-19T20:17:59.749Z,97147.23
2019-02-19T20:20:25.808Z,97154.39
2019-02-19T20:22:51.946Z,97153.70
2019-02-19T20:25:17.843Z,97150.77
2019-02-19T20:27:43.885Z,97150.52
2019-02-19T20:30:51.429Z,97156.02
2019-02-19T20:33:17.736Z,97151.09
2019-02-19T20:35:43.732Z,97150.62
2019-02-19T20:38:09.645Z,97156.90
2019-02-19T20:40:35.553Z,97150.92
2019-02-19T20:43:01.464Z,97153.80
2019-02-19T20:45:27.447Z,97161.36
2019-02-19T20:47:53.354Z,97158.50
2019-02-19T20:50:19.294Z,97160.86
2019-02-19T20:52:45.155Z,97158.50
2019-02-19T20:55:11.457Z,97162.16
2019-02-19T20:57:37.498Z,97170.97
2019-02-19T21:00:45.000Z,97160.23
2019-02-19T21:03:10.834Z,97156.41
2019-02-19T21:05:36.764Z,97164.11
2019-02-19T21:08:02.744Z,97165.64
2019-02-19T21:10:28.596Z,97163.27
2019-02-19T21:12:54.436Z,97161.38
2019-02-19T21:15:20.303Z,97165.55
2019-02-19T21:17:46.147Z,97164.45
2019-02-19T21:20:12.100Z,97166.54
2019-02-19T21:22:37.925Z,97160.06
2019-02-19T21:25:45.433Z,97172.07
2019-02-19T21:28:11.270Z,97170.63
2019-02-19T21:30:37.205Z,97165.69
2019-02-19T21:33:03.045Z,97168.78
2019-02-19T21:35:28.870Z,97168.54
2019-02-19T21:37:54.803Z,97168.33
2019-02-19T21:40:20.632Z,97166.80
2019-02-19T21:42:46.471Z,97162.88
2019-02-19T21:45:53.954Z,97166.16
2019-02-19T21:48:19.790Z,97160.61
2019-02-19T21:50:45.637Z,97165.84
2019-02-19T21:53:11.555Z,97165.19
2019-02-19T21:55:37.370Z,97170.84
2019-02-19T21:58:03.416Z,97168.97
2019-02-19T22:00:29.240Z,97169.25
2019-02-19T22:02:55.141Z,97160.98
2019-02-19T22:05:20.959Z,97173.01
2019-02-19T22:07:46.798Z,97172.53
2019-02-19T22:10:54.278Z,97170.78
2019-02-19T22:13:20.229Z,97172.20
2019-02-19T22:15:46.059Z,97162.11
2019-02-19T22:18:11.915Z,97167.20
2019-02-19T22:20:57.630Z,97169.04
2019-02-19T22:23:23.459Z,97171.88
2019-02-19T22:25:49.297Z,97174.99
2019-02-19T22:28:15.130Z,97174.09
2019-02-19T22:30:40.978Z,97175.56
2019-02-19T22:33:06.834Z,97170.38
2019-02-19T22:35:32.655Z,97168.02
2019-02-19T22:37:58.565Z,97166.52
2019-02-19T22:40:24.383Z,97166.59
2019-02-19T22:42:50.232Z,97168.95
2019-02-19T22:45:16.169Z,97168.70
2019-02-19T22:47:41.991Z,97165.94
2019-02-19T22:50:08.231Z,97165.21
2019-02-19T22:52:34.073Z,97169.48
2019-02-19T22:55:19.827Z,97162.28
2019-02-19T22:57:45.644Z,97177.36
2019-02-19T23:00:53.143Z,97178.52
2019-02-19T23:03:38.823Z,97180.77
2019-02-19T23:06:04.864Z,97181.02
2019-02-19T23:08:30.683Z,97186.81
2019-02-19T23:10:56.500Z,97186.45
2019-02-19T23:13:22.331Z,97191.22
2019-02-19T23:15:48.184Z,97186.73
2019-02-19T23:18:14.033Z,97194.09
2019-02-19T23:20:39.957Z,97195.85
2019-02-19T23:23:05.789Z,97188.30
2019-02-19T23:25:31.620Z,97190.94
2019-02-19T23:27:57.547Z,97201.41
2019-02-19T23:30:23.396Z,97197.23
2019-02-19T23:32:49.208Z,97195.06
2019-02-19T23:35:34.933Z,97194.09
2019-02-19T23:38:00.847Z,97193.45
2019-02-19T23:40:26.686Z,97197.75
2019-02-19T23:42:52.514Z,97197.28
2019-02-19T23:45:18.337Z,97200.66
2019-02-19T23:47:44.150Z,97199.52
2019-02-19T23:50:10.091Z,97201.88
2019-02-19T23:52:36.015Z,97205.38
2019-02-19T23:55:43.478Z,97204.00
2019-02-19T23:58:09.403Z,97199.95
